createdAt,value
2018-07-14T00:00:59.524Z,87.48
2018-07-14T00:01:59.504Z,87.48
2018-07-14T00:02:59.558Z,87.38
2018-07-14T00:03:59.484Z,87.38
2018-07-14T00:04:59.462Z,87.29
2018-07-14T00:05:59.445Z,87.86
2018-07-14T00:06:59.466Z,87.96
2018-07-14T00:07:59.409Z,87.96
2018-07-14T00:08:59.439Z,88.06
2018-07-14T00:09:59.414Z,88.24
2018-07-14T00:10:59.364Z,88.24
2018-07-14T00:11:59.350Z,88.73
2018-07-14T00:12:59.337Z,88.63
2018-07-14T00:13:59.322Z,88.44
2018-07-14T00:14:59.302Z,89.40
2018-07-14T00:15:59.287Z,89.21
2018-07-14T00:16:59.272Z,89.40
2018-07-14T00:17:59.260Z,89.40
2018-07-14T00:18:59.240Z,89.59
2018-07-14T00:19:59.220Z,89.30
2018-07-14T00:20:59.209Z,89.59
2018-07-14T00:21:59.193Z,89.78
2018-07-14T00:22:59.178Z,90.17
2018-07-14T00:23:59.154Z,89.98
2018-07-14T00:24:59.146Z,90.17
2018-07-14T00:25:59.134Z,90.17
2018-07-14T00:26:59.117Z,90.07
2018-07-14T00:27:59.124Z,90.03
2018-07-14T00:28:59.076Z,90.60
2018-07-14T00:29:59.061Z,90.80
2018-07-14T00:30:59.050Z,91.18
2018-07-14T00:31:59.032Z,91.56
2018-07-14T00:32:59.022Z,90.89
2018-07-14T00:33:59.001Z,91.08
2018-07-14T00:34:58.983Z,91.08
2018-07-14T00:35:58.961Z,91.08
2018-07-14T00:36:59.732Z,91.56
2018-07-14T00:37:58.936Z,91.75
2018-07-14T00:38:58.978Z,91.37
2018-07-14T00:39:58.921Z,91.75
2018-07-14T00:40:58.883Z,92.05
2018-07-14T00:41:58.887Z,91.95
2018-07-14T00:42:58.871Z,91.66
2018-07-14T00:43:58.883Z,92.05
2018-07-14T00:44:58.835Z,92.14
2018-07-14T00:47:31.937Z,92.62
2018-07-14T00:48:31.890Z,92.62
2018-07-14T00:49:31.870Z,92.62
2018-07-14T00:50:31.855Z,92.81
2018-07-14T00:51:31.843Z,92.81
2018-07-14T00:52:31.827Z,92.81
2018-07-14T00:53:31.816Z,93.01
2018-07-14T00:54:31.793Z,93.58
2018-07-14T00:55:31.819Z,93.10
2018-07-14T00:56:31.760Z,93.19
2018-07-14T00:57:31.748Z,93.34
2018-07-14T00:58:31.725Z,93.29
2018-07-14T00:59:31.713Z,93.44
2018-07-14T01:00:31.728Z,93.29
2018-07-14T01:01:31.689Z,93.34
2018-07-14T01:02:31.686Z,93.34
2018-07-14T01:03:31.647Z,93.44
2018-07-14T01:04:31.626Z,93.63
2018-07-14T01:05:31.645Z,93.44
2018-07-14T01:06:31.599Z,93.82
2018-07-14T01:07:31.604Z,94.40
2018-07-14T01:08:31.581Z,94.40
2018-07-14T01:09:31.585Z,94.11
2018-07-14T01:10:31.537Z,94.31
2018-07-14T01:11:31.512Z,94.31
2018-07-14T01:12:31.501Z,94.49
2018-07-14T01:13:31.481Z,94.31
2018-07-14T01:14:31.470Z,94.78
2018-07-14T01:15:31.451Z,94.98
2018-07-14T01:16:31.435Z,95.07
2018-07-14T01:17:31.418Z,95.26
2018-07-14T01:18:31.401Z,95.17
2018-07-14T01:19:31.388Z,95.26
2018-07-14T01:20:31.366Z,94.98
2018-07-14T01:21:31.378Z,95.36
2018-07-14T01:22:31.337Z,95.26
2018-07-14T01:23:31.316Z,95.94
2018-07-14T01:24:31.307Z,96.22
2018-07-14T01:25:31.285Z,96.13
2018-07-14T01:26:31.271Z,95.84
2018-07-14T01:27:31.256Z,96.13
2018-07-14T01:28:31.240Z,95.75
2018-07-14T01:29:31.219Z,95.94
2018-07-14T01:30:31.203Z,95.75
2018-07-14T01:31:31.187Z,96.32
2018-07-14T01:32:31.169Z,96.27
2018-07-14T01:33:31.152Z,96.75
2018-07-14T01:34:31.146Z,96.94
2018-07-14T01:35:31.123Z,96.08
2018-07-14T01:36:31.110Z,97.04
2018-07-14T01:37:31.096Z,96.75
2018-07-14T01:38:31.074Z,96.66
2018-07-14T01:39:31.055Z,96.47
2018-07-14T01:40:31.109Z,96.85
2018-07-14T01:41:31.045Z,96.56
2018-07-14T01:42:31.002Z,96.66
2018-07-14T01:43:30.988Z,97.42
2018-07-14T01:44:30.972Z,97.42
2018-07-14T01:45:30.956Z,97.52
2018-07-14T01:46:30.934Z,97.24
2018-07-14T01:47:30.919Z,97.14
2018-07-14T01:48:30.912Z,97.14
2018-07-14T01:49:30.893Z,97.52
2018-07-14T01:50:30.874Z,97.52
2018-07-14T01:51:30.855Z,97.61
2018-07-14T01:52:30.837Z,97.61
2018-07-14T01:53:30.823Z,97.71
2018-07-14T01:54:30.806Z,97.42
2018-07-14T01:55:30.787Z,98.10
2018-07-14T01:56:30.768Z,98.58
2018-07-14T01:57:30.763Z,98.29
2018-07-14T01:58:30.746Z,98.19
2018-07-14T01:59:30.720Z,98.38
2018-07-14T02:00:30.704Z,98.00
2018-07-14T02:01:30.689Z,98.00
2018-07-14T02:02:30.673Z,98.29
2018-07-14T02:03:30.653Z,98.38
2018-07-14T02:04:30.637Z,98.19
2018-07-14T02:05:30.630Z,98.00
2018-07-14T02:06:30.608Z,98.00
2018-07-14T02:07:30.591Z,99.05
2018-07-14T02:08:30.570Z,98.48
2018-07-14T02:09:30.563Z,99.25
2018-07-14T02:10:30.536Z,99.05
2018-07-14T02:11:30.530Z,98.77
2018-07-14T02:12:30.500Z,99.05
2018-07-14T02:13:30.486Z,98.77
2018-07-14T02:14:30.472Z,98.62
2018-07-14T02:15:30.456Z,98.91
2018-07-14T02:16:30.441Z,99.10
2018-07-14T02:17:30.429Z,99.39
2018-07-14T02:18:30.410Z,99.39
2018-07-14T02:19:30.383Z,99.49
2018-07-14T02:20:30.372Z,99.58
2018-07-14T02:21:30.348Z,99.58
2018-07-14T02:22:30.337Z,99.87
2018-07-14T02:23:30.320Z,99.96
2018-07-14T02:24:30.309Z,99.99
2018-07-14T02:25:30.281Z,99.58
2018-07-14T02:26:30.314Z,99.99
2018-07-14T02:27:30.321Z,99.99
2018-07-14T02:28:30.258Z,99.99
2018-07-14T02:29:30.219Z,99.99
2018-07-14T02:30:30.198Z,99.99
2018-07-14T02:31:30.185Z,99.99
2018-07-14T02:32:30.164Z,99.96
2018-07-14T02:33:30.149Z,99.99
2018-07-14T02:34:30.134Z,99.99
2018-07-14T02:35:30.118Z,99.99
2018-07-14T02:36:30.102Z,99.99
2018-07-14T02:37:30.098Z,99.99
2018-07-14T02:38:30.071Z,99.99
2018-07-14T02:39:30.047Z,99.99
2018-07-14T02:40:30.050Z,99.99
2018-07-14T02:41:30.015Z,99.99
2018-07-14T02:42:29.998Z,99.99
2018-07-14T02:43:29.981Z,99.99
2018-07-14T02:44:29.966Z,99.99
2018-07-14T02:45:29.987Z,99.99
2018-07-14T02:46:29.926Z,99.99
2018-07-14T02:47:29.911Z,99.99
2018-07-14T02:48:29.892Z,99.99
2018-07-14T02:49:29.882Z,99.99
2018-07-14T02:50:29.868Z,99.99
2018-07-14T02:51:29.843Z,99.99
2018-07-14T02:52:29.827Z,99.99
2018-07-14T02:53:29.813Z,99.99
2018-07-14T02:54:29.798Z,99.99
2018-07-14T02:55:29.772Z,99.99
2018-07-14T02:56:29.759Z,99.99
2018-07-14T02:57:29.742Z,99.99
2018-07-14T02:58:29.726Z,99.99
2018-07-14T02:59:29.752Z,99.99
2018-07-14T03:00:29.689Z,99.99
2018-07-14T03:01:29.679Z,99.99
2018-07-14T03:02:29.708Z,99.99
2018-07-14T03:03:29.661Z,99.99
2018-07-14T03:04:29.622Z,99.99
2018-07-14T03:05:29.605Z,99.99
2018-07-14T03:06:29.597Z,99.99
2018-07-14T03:07:29.567Z,99.99
2018-07-14T03:08:29.550Z,99.99
2018-07-14T03:09:29.534Z,99.99
2018-07-14T03:10:29.555Z,99.99
2018-07-14T03:11:29.523Z,99.99
2018-07-14T03:12:29.523Z,99.99
2018-07-14T03:13:29.473Z,99.99
2018-07-14T03:14:29.463Z,99.99
2018-07-14T03:15:29.434Z,99.99
2018-07-14T03:16:29.463Z,99.99
2018-07-14T03:17:29.395Z,99.99
2018-07-14T03:18:29.385Z,99.99
2018-07-14T03:19:29.394Z,99.99
2018-07-14T03:20:29.344Z,99.99
2018-07-14T03:21:29.324Z,99.99
2018-07-14T03:22:29.320Z,99.99
2018-07-14T03:23:29.295Z,99.99
2018-07-14T03:24:29.290Z,99.99
2018-07-14T03:25:29.265Z,99.99
2018-07-14T03:26:29.244Z,99.99
2018-07-14T03:27:29.229Z,99.99
2018-07-14T03:28:29.216Z,99.99
2018-07-14T03:29:29.194Z,99.99
2018-07-14T03:30:29.177Z,99.99
2018-07-14T03:31:29.161Z,99.99
2018-07-14T03:32:29.141Z,99.99
2018-07-14T03:33:30.012Z,99.99
2018-07-14T03:34:29.106Z,99.99
2018-07-14T03:35:29.099Z,99.99
2018-07-14T03:36:29.082Z,99.99
2018-07-14T03:37:29.053Z,99.99
2018-07-14T03:38:29.039Z,99.99
2018-07-14T03:39:29.020Z,99.99
2018-07-14T03:40:29.002Z,99.99
2018-07-14T03:41:28.987Z,99.99
2018-07-14T03:42:28.982Z,99.99
2018-07-14T03:43:28.958Z,99.99
2018-07-14T03:44:28.933Z,99.99
2018-07-14T03:45:28.913Z,99.99
2018-07-14T03:46:28.892Z,99.99
2018-07-14T03:47:28.878Z,99.99
2018-07-14T03:48:28.864Z,99.99
2018-07-14T03:49:28.844Z,99.99
2018-07-14T03:50:28.834Z,99.99
2018-07-14T03:51:28.845Z,99.99
2018-07-14T03:52:28.792Z,99.99
2018-07-14T03:53:28.782Z,99.99
2018-07-14T03:54:28.759Z,99.99
2018-07-14T03:55:28.743Z,99.99
2018-07-14T03:56:28.726Z,99.99
2018-07-14T03:57:28.723Z,99.99
2018-07-14T03:58:28.702Z,99.99
2018-07-14T03:59:28.682Z,99.99
2018-07-14T04:00:28.654Z,99.99
2018-07-14T04:01:28.635Z,99.99
2018-07-14T04:02:28.620Z,99.99
2018-07-14T04:03:28.602Z,99.99
2018-07-14T04:04:28.585Z,99.99
2018-07-14T04:05:28.572Z,99.99
2018-07-14T04:06:28.569Z,99.99
2018-07-14T04:07:28.568Z,99.99
2018-07-14T04:08:28.545Z,99.99
2018-07-14T04:09:28.495Z,99.99
2018-07-14T04:10:28.477Z,99.99
2018-07-14T04:11:28.485Z,99.99
2018-07-14T04:12:28.458Z,99.99
2018-07-14T04:13:28.430Z,99.99
2018-07-14T04:14:28.415Z,99.99
2018-07-14T04:15:29.022Z,99.99
2018-07-14T04:16:28.377Z,99.99
2018-07-14T04:17:28.356Z,99.99
2018-07-14T04:18:28.341Z,99.99
2018-07-14T04:19:28.322Z,99.99
2018-07-14T04:20:28.320Z,99.99
2018-07-14T04:21:29.021Z,99.99
2018-07-14T04:22:28.272Z,99.99
2018-07-14T04:23:28.254Z,99.99
2018-07-14T04:24:28.239Z,99.99
2018-07-14T04:25:28.220Z,99.99
2018-07-14T04:26:28.200Z,99.99
2018-07-14T04:27:28.186Z,99.99
2018-07-14T04:28:28.168Z,99.99
2018-07-14T04:29:28.150Z,99.99
2018-07-14T04:30:28.129Z,99.99
2018-07-14T04:31:28.111Z,99.99
2018-07-14T04:32:28.098Z,99.99
2018-07-14T04:33:28.082Z,99.99
2018-07-14T04:34:28.061Z,99.99
2018-07-14T04:35:28.046Z,99.99
2018-07-14T04:36:28.029Z,99.99
2018-07-14T04:37:28.016Z,99.99
2018-07-14T04:38:28.022Z,99.99
2018-07-14T04:39:27.988Z,99.99
2018-07-14T04:40:27.954Z,99.99
2018-07-14T04:41:27.941Z,99.99
2018-07-14T04:42:27.987Z,99.99
2018-07-14T04:43:27.901Z,99.99
2018-07-14T04:44:27.897Z,99.99
2018-07-14T04:45:27.873Z,99.99
2018-07-14T04:46:27.853Z,99.99
2018-07-14T04:47:27.843Z,99.99
2018-07-14T04:48:27.820Z,99.99
2018-07-14T04:49:27.823Z,99.99
2018-07-14T04:50:27.786Z,99.99
2018-07-14T04:51:27.773Z,99.99
2018-07-14T04:52:27.748Z,99.99
2018-07-14T04:53:27.736Z,99.99
2018-07-14T04:54:27.716Z,99.99
2018-07-14T04:55:27.728Z,99.99
2018-07-14T04:56:27.679Z,99.99
2018-07-14T04:57:27.678Z,99.99
2018-07-14T04:58:27.648Z,99.99
2018-07-14T04:59:27.636Z,99.99
2018-07-14T05:00:27.611Z,99.99
2018-07-14T05:01:27.598Z,99.99
2018-07-14T05:02:27.590Z,99.99
2018-07-14T05:03:27.562Z,99.99
2018-07-14T05:04:27.547Z,99.99
2018-07-14T05:05:27.530Z,99.99
2018-07-14T05:06:27.527Z,99.99
2018-07-14T05:07:27.498Z,99.99
2018-07-14T05:08:27.478Z,99.99
2018-07-14T05:09:27.458Z,99.99
2018-07-14T05:10:28.036Z,99.99
2018-07-14T05:11:27.426Z,99.99
2018-07-14T05:12:27.411Z,99.99
2018-07-14T05:13:27.389Z,99.99
2018-07-14T05:14:27.383Z,99.99
2018-07-14T05:15:27.359Z,99.99
2018-07-14T05:16:27.337Z,99.99
2018-07-14T05:17:27.370Z,99.99
2018-07-14T05:18:27.314Z,99.99
2018-07-14T05:19:27.289Z,99.99
2018-07-14T05:20:27.277Z,99.99
2018-07-14T05:21:27.316Z,99.99
2018-07-14T05:22:27.235Z,99.99
2018-07-14T05:23:27.225Z,99.99
2018-07-14T05:24:27.202Z,99.99
2018-07-14T05:25:27.184Z,99.99
2018-07-14T05:26:27.168Z,99.99
2018-07-14T05:27:27.151Z,99.99
2018-07-14T05:28:27.193Z,99.99
2018-07-14T05:29:27.122Z,99.99
2018-07-14T05:30:27.105Z,99.99
2018-07-14T05:31:27.093Z,99.99
2018-07-14T05:32:27.106Z,99.99
2018-07-14T05:33:27.075Z,99.99
2018-07-14T05:34:27.036Z,99.99
2018-07-14T05:35:27.014Z,99.99
2018-07-14T05:36:27.004Z,99.99
2018-07-14T05:37:26.995Z,99.99
2018-07-14T05:38:26.967Z,99.99
2018-07-14T05:39:26.960Z,99.99
2018-07-14T05:40:26.932Z,99.99
2018-07-14T05:41:26.917Z,99.99
2018-07-14T05:42:26.901Z,99.99
2018-07-14T05:43:26.884Z,99.99
2018-07-14T05:44:26.869Z,99.99
2018-07-14T05:45:26.849Z,99.99
2018-07-14T05:46:26.846Z,99.99
2018-07-14T05:47:26.817Z,99.99
2018-07-14T05:48:26.799Z,99.99
2018-07-14T05:49:26.809Z,99.99
2018-07-14T05:50:26.789Z,99.99
2018-07-14T05:51:26.750Z,99.99
2018-07-14T05:52:26.733Z,99.99
2018-07-14T05:53:26.718Z,99.99
2018-07-14T05:54:26.699Z,99.99
2018-07-14T05:55:26.686Z,99.99
2018-07-14T05:56:26.668Z,99.99
2018-07-14T05:57:26.654Z,99.99
2018-07-14T05:58:26.647Z,99.99
2018-07-14T05:59:27.546Z,99.99
2018-07-14T06:00:26.602Z,99.99
2018-07-14T06:01:26.626Z,99.99
2018-07-14T06:02:26.573Z,99.99
2018-07-14T06:03:26.577Z,99.06
2018-07-14T06:04:26.538Z,98.86
2018-07-14T06:05:26.527Z,99.25
2018-07-14T06:06:26.515Z,99.54
2018-07-14T06:07:26.500Z,99.15
2018-07-14T06:08:26.490Z,99.06
2018-07-14T06:09:26.468Z,98.86
2018-07-14T06:10:26.449Z,98.39
2018-07-14T06:11:26.439Z,98.63
2018-07-14T06:12:26.441Z,98.34
2018-07-14T06:13:26.461Z,97.76
2018-07-14T06:14:26.445Z,97.67
2018-07-14T06:15:26.417Z,97.57
2018-07-14T06:16:26.384Z,97.96
2018-07-14T06:17:26.363Z,97.76
2018-07-14T06:18:26.377Z,96.94
2018-07-14T06:19:26.345Z,96.85
2018-07-14T06:20:26.366Z,96.56
2018-07-14T06:21:26.334Z,95.60
2018-07-14T06:22:26.298Z,95.70
2018-07-14T06:23:26.313Z,95.89
2018-07-14T06:24:26.270Z,94.92
2018-07-14T06:25:26.260Z,94.97
2018-07-14T06:26:26.245Z,94.68
2018-07-14T06:27:26.235Z,94.49
2018-07-14T06:28:26.231Z,94.59
2018-07-14T06:29:26.215Z,95.07
2018-07-14T06:30:26.207Z,93.77
2018-07-14T06:31:26.206Z,94.54
2018-07-14T06:32:26.180Z,94.82
2018-07-14T06:33:26.168Z,93.57
2018-07-14T06:34:26.176Z,93.53
2018-07-14T06:35:26.169Z,93.57
2018-07-14T06:36:26.137Z,92.80
2018-07-14T06:37:26.147Z,92.61
2018-07-14T06:38:26.203Z,92.32
2018-07-14T06:39:26.106Z,92.52
2018-07-14T06:40:26.161Z,92.61
2018-07-14T06:41:28.060Z,92.80
2018-07-14T06:42:26.079Z,92.80
2018-07-14T06:43:26.064Z,91.79
2018-07-14T06:44:26.062Z,92.18
2018-07-14T06:45:26.046Z,91.31
2018-07-14T06:46:26.065Z,91.79
2018-07-14T06:47:26.028Z,90.54
2018-07-14T06:48:26.019Z,90.25
2018-07-14T06:49:26.010Z,91.02
2018-07-14T06:50:26.013Z,90.73
2018-07-14T06:51:25.991Z,90.54
2018-07-14T06:52:26.007Z,90.54
2018-07-14T06:53:25.995Z,89.77
2018-07-14T06:54:25.973Z,88.71
2018-07-14T06:55:25.954Z,89.53
2018-07-14T06:56:25.951Z,89.04
2018-07-14T06:57:25.964Z,89.53
2018-07-14T06:58:25.927Z,90.00
2018-07-14T06:59:25.926Z,88.81
2018-07-14T07:00:25.910Z,88.51
2018-07-14T07:01:25.898Z,89.67
2018-07-14T07:02:25.890Z,91.31
2018-07-14T07:03:25.919Z,90.83
2018-07-14T07:04:25.912Z,90.92
2018-07-14T07:05:25.869Z,89.58
2018-07-14T07:06:25.857Z,89.96
2018-07-14T07:07:25.868Z,89.81
2018-07-14T07:08:25.841Z,89.48
2018-07-14T07:09:25.844Z,90.44
2018-07-14T07:10:25.831Z,90.73
2018-07-14T07:11:25.826Z,90.54
2018-07-14T07:12:25.809Z,90.48
2018-07-14T07:13:25.811Z,90.58
2018-07-14T07:14:25.795Z,89.72
2018-07-14T07:15:25.817Z,89.09
2018-07-14T07:16:25.789Z,88.12
2018-07-14T07:17:25.777Z,87.83
2018-07-14T07:18:25.762Z,87.74
2018-07-14T07:19:25.760Z,87.30
2018-07-14T07:20:25.767Z,87.30
2018-07-14T07:21:25.805Z,87.30
2018-07-14T07:22:25.769Z,85.46
2018-07-14T07:23:25.735Z,84.79
2018-07-14T07:24:25.720Z,84.50
2018-07-14T07:25:25.716Z,84.83
2018-07-14T07:26:25.704Z,84.64
2018-07-14T07:27:25.723Z,83.00
2018-07-14T07:28:25.692Z,82.61
2018-07-14T07:29:25.724Z,82.13
2018-07-14T07:30:25.690Z,83.39
2018-07-14T07:31:25.665Z,82.67
2018-07-14T07:32:25.664Z,84.31
2018-07-14T07:33:25.650Z,83.15
2018-07-14T07:34:25.660Z,83.92
2018-07-14T07:35:25.642Z,84.59
2018-07-14T07:36:25.655Z,84.50
2018-07-14T07:37:25.623Z,83.44
2018-07-14T07:38:25.640Z,83.34
2018-07-14T07:39:25.595Z,84.50
2018-07-14T07:40:25.590Z,83.92
2018-07-14T07:41:25.584Z,83.34
2018-07-14T07:42:25.655Z,83.34
2018-07-14T07:43:25.572Z,82.57
2018-07-14T07:44:25.577Z,82.51
2018-07-14T07:45:25.549Z,82.51
2018-07-14T07:46:25.617Z,83.44
2018-07-14T07:47:25.881Z,83.48
2018-07-14T07:48:25.523Z,83.67
2018-07-14T07:49:25.503Z,83.09
2018-07-14T07:50:25.489Z,81.93
2018-07-14T07:51:25.490Z,82.03
2018-07-14T07:52:25.472Z,81.35
2018-07-14T07:53:25.535Z,82.32
2018-07-14T07:54:25.481Z,83.14
2018-07-14T07:55:25.446Z,82.17
2018-07-14T07:56:25.435Z,82.36
2018-07-14T07:57:25.417Z,82.40
2018-07-14T07:58:25.404Z,81.49
2018-07-14T07:59:25.510Z,80.76
2018-07-14T08:00:25.396Z,78.34
2018-07-14T08:01:25.372Z,79.22
2018-07-14T08:02:25.361Z,78.41
2018-07-14T08:03:25.354Z,81.16
2018-07-14T08:04:25.341Z,81.45
2018-07-14T08:05:25.330Z,81.65
2018-07-14T08:07:47.416Z,80.72
2018-07-14T08:08:47.468Z,81.40
2018-07-14T08:10:51.830Z,82.07
2018-07-14T08:11:42.304Z,82.69
2018-07-14T08:12:41.750Z,81.15
2018-07-14T08:13:41.751Z,81.24
2018-07-14T08:14:41.789Z,80.66
2018-07-14T08:15:41.923Z,79.95
2018-07-14T08:16:41.706Z,79.50
2018-07-14T08:17:41.667Z,78.15
2018-07-14T08:18:41.682Z,78.21
2018-07-14T08:19:41.665Z,78.02
2018-07-14T08:20:41.647Z,77.57
2018-07-14T08:21:41.624Z,78.44
2018-07-14T08:22:41.619Z,79.31
2018-07-14T08:23:41.606Z,78.64
2018-07-14T08:24:41.595Z,78.83
2018-07-14T08:25:41.583Z,79.12
2018-07-14T08:26:41.661Z,79.06
2018-07-14T08:27:41.571Z,78.96
2018-07-14T08:28:41.551Z,79.35
2018-07-14T08:29:41.544Z,79.45
2018-07-14T08:30:41.524Z,76.45
2018-07-14T08:31:41.607Z,76.93
2018-07-14T08:32:41.573Z,75.10
2018-07-14T08:33:41.485Z,74.96
2018-07-14T08:34:41.496Z,75.74
2018-07-14T08:35:41.474Z,76.03
2018-07-14T08:36:41.455Z,77.67
2018-07-14T08:37:41.442Z,78.25
2018-07-14T08:38:41.436Z,76.70
2018-07-14T08:39:41.437Z,77.51
2018-07-14T08:40:41.405Z,77.42
2018-07-14T08:41:41.412Z,76.35
2018-07-14T08:42:41.388Z,75.04
2018-07-14T08:43:41.407Z,74.55
2018-07-14T08:44:41.366Z,74.27
2018-07-14T08:45:41.352Z,75.48
2018-07-14T08:46:41.348Z,74.46
2018-07-14T08:47:41.354Z,74.13
2018-07-14T08:48:41.405Z,75.29
2018-07-14T08:49:41.333Z,75.71
2018-07-14T08:50:41.296Z,74.94
2018-07-14T08:51:41.311Z,75.23
2018-07-14T08:52:41.276Z,76.49
2018-07-14T08:53:41.280Z,75.71
2018-07-14T08:54:41.255Z,74.27
2018-07-14T08:55:41.236Z,73.68
2018-07-14T08:56:41.236Z,75.13
2018-07-14T08:57:41.216Z,75.71
2018-07-14T08:58:41.207Z,75.33
2018-07-14T08:59:41.206Z,75.07
2018-07-14T09:00:41.181Z,73.33
2018-07-14T09:01:41.172Z,73.91
2018-07-14T09:02:41.174Z,73.63
2018-07-14T09:03:41.329Z,73.82
2018-07-14T09:04:41.143Z,73.20
2018-07-14T09:05:41.129Z,73.78
2018-07-14T09:06:41.115Z,75.04
2018-07-14T09:07:41.111Z,75.71
2018-07-14T09:08:41.103Z,75.13
2018-07-14T09:09:41.084Z,74.79
2018-07-14T09:10:41.072Z,74.11
2018-07-14T09:11:41.077Z,73.53
2018-07-14T09:12:41.062Z,73.04
2018-07-14T09:13:41.056Z,73.24
2018-07-14T09:14:41.042Z,73.04
2018-07-14T09:15:41.020Z,73.24
2018-07-14T09:16:41.009Z,72.56
2018-07-14T09:17:40.996Z,72.85
2018-07-14T09:18:40.991Z,72.95
2018-07-14T09:19:40.974Z,72.08
2018-07-14T09:20:40.960Z,72.56
2018-07-14T09:21:40.950Z,73.53
2018-07-14T09:22:40.940Z,73.63
2018-07-14T09:23:40.931Z,73.91
2018-07-14T09:24:40.919Z,73.43
2018-07-14T09:25:40.904Z,72.46
2018-07-14T09:26:40.907Z,72.30
2018-07-14T09:27:40.884Z,73.66
2018-07-14T09:28:40.882Z,73.57
2018-07-14T09:29:40.857Z,72.69
2018-07-14T09:30:40.864Z,73.57
2018-07-14T09:31:40.951Z,72.02
2018-07-14T09:32:40.913Z,72.30
2018-07-14T09:33:40.856Z,73.66
2018-07-14T09:34:40.804Z,73.08
2018-07-14T09:35:40.793Z,73.08
2018-07-14T09:36:40.785Z,72.40
2018-07-14T09:37:40.775Z,70.56
2018-07-14T09:38:40.766Z,70.27
2018-07-14T09:39:40.766Z,71.92
2018-07-14T09:40:40.800Z,71.53
2018-07-14T09:41:40.772Z,71.44
2018-07-14T09:42:40.727Z,72.11
2018-07-14T09:43:40.711Z,70.37
2018-07-14T09:44:40.759Z,69.79
2018-07-14T09:45:40.686Z,71.82
2018-07-14T09:46:40.678Z,70.37
2018-07-14T09:47:40.670Z,69.11
2018-07-14T09:48:40.659Z,69.69
2018-07-14T09:49:40.668Z,70.08
2018-07-14T09:50:40.637Z,71.34
2018-07-14T09:51:40.621Z,69.89
2018-07-14T09:52:40.625Z,68.66
2018-07-14T09:53:40.644Z,68.85
2018-07-14T09:54:40.609Z,70.08
2018-07-14T09:55:40.592Z,69.21
2018-07-14T09:56:40.666Z,70.66
2018-07-14T09:57:40.583Z,70.27
2018-07-14T09:58:40.572Z,72.69
2018-07-14T09:59:40.543Z,71.24
2018-07-14T10:00:40.555Z,70.56
2018-07-14T10:01:40.516Z,69.98
2018-07-14T10:02:40.505Z,70.31
2018-07-14T10:03:40.512Z,70.31
2018-07-14T10:04:40.478Z,69.34
2018-07-14T10:05:40.472Z,70.21
2018-07-14T10:06:40.470Z,68.99
2018-07-14T10:07:40.471Z,69.08
2018-07-14T10:08:40.453Z,67.34
2018-07-14T10:09:40.433Z,68.02
2018-07-14T10:10:40.415Z,67.44
2018-07-14T10:11:40.410Z,69.95
2018-07-14T10:12:40.393Z,68.79
2018-07-14T10:13:40.386Z,68.12
2018-07-14T10:14:40.386Z,67.05
2018-07-14T10:15:40.367Z,67.53
2018-07-14T10:16:40.350Z,67.24
2018-07-14T10:17:40.360Z,66.20
2018-07-14T10:18:40.336Z,66.27
2018-07-14T10:19:40.321Z,68.40
2018-07-14T10:20:40.313Z,68.50
2018-07-14T10:21:40.304Z,67.63
2018-07-14T10:22:40.286Z,68.99
2018-07-14T10:23:40.276Z,67.27
2018-07-14T10:24:40.269Z,67.37
2018-07-14T10:25:40.359Z,64.07
2018-07-14T10:26:40.251Z,64.37
2018-07-14T10:27:40.237Z,64.75
2018-07-14T10:28:40.226Z,64.56
2018-07-14T10:29:40.343Z,66.20
2018-07-14T10:30:40.210Z,66.02
2018-07-14T10:31:40.206Z,66.30
2018-07-14T10:32:40.187Z,63.98
2018-07-14T10:33:40.297Z,66.30
2018-07-14T10:34:40.168Z,64.17
2018-07-14T10:35:40.182Z,63.40
2018-07-14T10:36:40.143Z,64.24
2018-07-14T10:37:40.138Z,63.37
2018-07-14T10:38:40.145Z,64.14
2018-07-14T10:39:40.144Z,65.47
2018-07-14T10:40:40.106Z,64.98
2018-07-14T10:41:40.096Z,65.85
2018-07-14T10:42:40.085Z,68.85
2018-07-14T10:43:40.079Z,68.02
2018-07-14T10:44:40.069Z,65.98
2018-07-14T10:45:40.054Z,65.01
2018-07-14T10:46:40.081Z,65.53
2018-07-14T10:47:40.035Z,65.53
2018-07-14T10:48:40.025Z,65.63
2018-07-14T10:49:40.014Z,65.37
2018-07-14T10:50:40.003Z,65.85
2018-07-14T10:51:40.067Z,64.59
2018-07-14T10:52:39.981Z,63.13
2018-07-14T10:53:39.978Z,62.65
2018-07-14T10:54:39.979Z,62.46
2018-07-14T10:55:39.960Z,63.04
2018-07-14T10:56:39.936Z,64.01
2018-07-14T10:57:39.931Z,63.13
2018-07-14T10:58:39.923Z,63.04
2018-07-14T10:59:39.910Z,62.52
2018-07-14T11:00:39.906Z,61.94
2018-07-14T11:01:39.888Z,63.01
2018-07-14T11:02:39.887Z,62.52
2018-07-14T11:03:39.899Z,63.17
2018-07-14T11:04:39.873Z,65.20
2018-07-14T11:05:39.938Z,64.14
2018-07-14T11:06:39.842Z,64.62
2018-07-14T11:07:39.832Z,65.98
2018-07-14T11:08:39.821Z,65.98
2018-07-14T11:09:39.824Z,66.37
2018-07-14T11:10:39.805Z,64.37
2018-07-14T11:11:39.790Z,63.82
2018-07-14T11:12:39.782Z,65.27
2018-07-14T11:13:39.767Z,64.11
2018-07-14T11:14:39.769Z,63.13
2018-07-14T11:15:39.751Z,63.04
2018-07-14T11:16:39.745Z,63.07
2018-07-14T11:17:39.735Z,63.46
2018-07-14T11:18:39.728Z,61.55
2018-07-14T11:19:39.714Z,61.35
2018-07-14T11:20:39.713Z,58.44
2018-07-14T11:21:39.751Z,60.25
2018-07-14T11:22:39.689Z,61.22
2018-07-14T11:23:39.699Z,59.77
2018-07-14T11:24:39.664Z,59.48
2018-07-14T11:25:39.678Z,59.51
2018-07-14T11:26:39.650Z,60.35
2018-07-14T11:27:39.646Z,62.16
2018-07-14T11:28:39.633Z,60.68
2018-07-14T11:29:39.628Z,61.49
2018-07-14T11:30:39.608Z,64.01
2018-07-14T11:31:39.667Z,62.52
2018-07-14T11:32:39.590Z,62.75
2018-07-14T11:33:39.599Z,62.95
2018-07-14T11:34:39.638Z,62.75
2018-07-14T11:35:39.570Z,61.00
2018-07-14T11:36:39.570Z,63.23
2018-07-14T11:37:39.579Z,64.11
2018-07-14T11:38:39.537Z,65.11
2018-07-14T11:39:39.585Z,62.88
2018-07-14T11:40:39.594Z,61.71
2018-07-14T11:41:39.514Z,62.23
2018-07-14T11:42:39.496Z,60.19
2018-07-14T11:43:39.497Z,59.61
2018-07-14T11:44:39.484Z,57.57
2018-07-14T11:45:39.482Z,58.44
2018-07-14T11:46:39.470Z,58.28
2018-07-14T11:47:39.468Z,56.04
2018-07-14T11:48:39.457Z,58.79
2018-07-14T11:49:39.439Z,58.59
2018-07-14T11:50:39.425Z,54.80
2018-07-14T11:51:39.436Z,56.07
2018-07-14T11:52:39.477Z,55.88
2018-07-14T11:53:39.424Z,56.46
2018-07-14T11:54:39.396Z,55.58
2018-07-14T11:55:39.391Z,56.65
2018-07-14T11:56:39.375Z,58.28
2018-07-14T11:57:39.387Z,53.91
2018-07-14T11:58:39.353Z,53.74
2018-07-14T11:59:39.344Z,55.49
2018-07-14T12:00:39.356Z,54.90
2018-07-14T12:01:39.343Z,55.00
2018-07-14T12:02:39.321Z,53.96
2018-07-14T12:03:39.345Z,53.18
2018-07-14T12:04:39.322Z,52.82
2018-07-14T12:05:39.295Z,52.23
2018-07-14T12:06:39.291Z,50.29
2018-07-14T12:07:39.282Z,51.67
2018-07-14T12:08:39.270Z,51.67
2018-07-14T12:09:39.260Z,51.29
2018-07-14T12:10:39.254Z,52.36
2018-07-14T12:11:39.249Z,53.72
2018-07-14T12:12:39.243Z,53.42
2018-07-14T12:13:39.224Z,50.73
2018-07-14T12:14:39.227Z,50.21
2018-07-14T12:15:39.225Z,50.02
2018-07-14T12:16:39.201Z,47.78
2018-07-14T12:17:39.208Z,49.37
2018-07-14T12:18:39.190Z,46.83
2018-07-14T12:19:39.180Z,48.49
2018-07-14T12:20:39.184Z,49.00
2018-07-14T12:21:39.176Z,49.27
2018-07-14T12:22:39.198Z,48.88
2018-07-14T12:23:39.154Z,49.24
2018-07-14T12:24:39.145Z,50.12
2018-07-14T12:25:39.135Z,51.26
2018-07-14T12:26:39.143Z,50.87
2018-07-14T12:27:39.144Z,51.36
2018-07-14T12:28:39.103Z,51.45
2018-07-14T12:29:39.102Z,49.99
2018-07-14T12:30:39.179Z,50.41
2018-07-14T12:31:39.094Z,50.31
2018-07-14T12:32:39.083Z,49.92
2018-07-14T12:33:39.073Z,47.98
2018-07-14T12:34:39.061Z,47.61
2018-07-14T12:35:39.052Z,47.98
2018-07-14T12:36:39.097Z,49.15
2018-07-14T12:37:39.039Z,48.56
2018-07-14T12:38:39.025Z,47.66
2018-07-14T12:39:39.020Z,49.61
2018-07-14T12:40:39.007Z,50.80
2018-07-14T12:41:38.999Z,50.70
2018-07-14T12:42:38.997Z,49.73
2018-07-14T12:43:38.989Z,46.91
2018-07-14T12:44:38.985Z,47.03
2018-07-14T12:45:38.969Z,46.83
2018-07-14T12:46:38.965Z,46.83
2018-07-14T12:47:38.957Z,49.68
2018-07-14T12:48:38.950Z,47.83
2018-07-14T12:49:38.969Z,47.25
2018-07-14T12:50:38.943Z,46.27
2018-07-14T12:51:38.924Z,47.44
2018-07-14T12:52:38.917Z,46.59
2018-07-14T12:53:38.923Z,47.27
2018-07-14T12:54:38.897Z,45.32
2018-07-14T12:55:38.955Z,45.81
2018-07-14T12:56:38.889Z,46.20